createdAt,value
2023-05-13T00:00:01.963Z,863.00
2023-05-13T00:01:01.990Z,865.00
2023-05-13T00:02:01.969Z,864.00
2023-05-13T00:03:02.053Z,865.00
2023-05-13T00:04:01.984Z,864.00
2023-05-13T00:05:02.014Z,863.00
2023-05-13T00:06:02.034Z,863.00
2023-05-13T00:07:02.012Z,863.00
2023-05-13T00:08:02.164Z,862.00
2023-05-13T00:09:02.019Z,861.00
2023-05-13T00:10:02.023Z,860.00
2023-05-13T00:11:02.012Z,858.00
2023-05-13T00:12:02.015Z,858.00
2023-05-13T00:13:02.024Z,859.00
2023-05-13T00:14:02.030Z,859.00
2023-05-13T00:15:02.038Z,859.00
2023-05-13T00:16:02.081Z,859.00
2023-05-13T00:17:02.061Z,857.00
2023-05-13T00:18:02.096Z,856.00
2023-05-13T00:19:02.095Z,856.00
2023-05-13T00:20:02.066Z,856.00
2023-05-13T00:21:02.064Z,857.00
2023-05-13T00:22:02.075Z,858.00
2023-05-13T00:23:02.077Z,860.00
2023-05-13T00:24:02.080Z,859.00
2023-05-13T00:25:02.073Z,860.00
2023-05-13T00:26:02.075Z,859.00
2023-05-13T00:27:02.082Z,857.00
2023-05-13T00:28:02.092Z,858.00
2023-05-13T00:29:02.108Z,854.00
2023-05-13T00:30:02.102Z,852.00
2023-05-13T00:31:02.114Z,854.00
2023-05-13T00:32:02.152Z,854.00
2023-05-13T00:33:02.179Z,856.00
2023-05-13T00:34:02.127Z,855.00
2023-05-13T00:35:02.150Z,855.00
2023-05-13T00:36:02.121Z,853.00
2023-05-13T00:37:02.120Z,854.00
2023-05-13T00:38:02.125Z,854.00
2023-05-13T00:39:02.125Z,852.00
2023-05-13T00:40:02.151Z,852.00
2023-05-13T00:41:02.164Z,852.00
2023-05-13T00:42:02.163Z,852.00
2023-05-13T00:43:02.168Z,852.00
2023-05-13T00:44:02.156Z,851.00
2023-05-13T00:45:02.164Z,851.00
2023-05-13T00:46:02.267Z,853.00
2023-05-13T00:47:02.167Z,853.00
2023-05-13T00:48:02.264Z,856.00
2023-05-13T00:49:02.193Z,856.00
2023-05-13T00:50:02.200Z,856.00
2023-05-13T00:51:02.180Z,855.00
2023-05-13T00:52:02.183Z,856.00
2023-05-13T00:53:02.190Z,858.00
2023-05-13T00:54:02.201Z,858.00
2023-05-13T00:55:02.217Z,857.00
2023-05-13T00:56:02.221Z,858.00
2023-05-13T00:57:02.218Z,857.00
2023-05-13T00:58:02.223Z,855.00
2023-05-13T00:59:02.231Z,853.00
2023-05-13T01:00:02.220Z,852.00
2023-05-13T01:01:02.262Z,852.00
2023-05-13T01:02:02.327Z,852.00
2023-05-13T01:03:02.302Z,851.00
2023-05-13T01:04:02.249Z,850.00
2023-05-13T01:05:02.259Z,848.00
2023-05-13T01:06:02.261Z,848.00
2023-05-13T01:07:02.267Z,849.00
2023-05-13T01:08:02.283Z,851.00
2023-05-13T01:09:02.286Z,850.00
2023-05-13T01:10:02.307Z,850.00
2023-05-13T01:11:02.319Z,849.00
2023-05-13T01:12:02.302Z,849.00
2023-05-13T01:13:02.775Z,849.00
2023-05-13T01:14:02.323Z,846.00
2023-05-13T01:15:02.331Z,845.00
2023-05-13T01:16:02.340Z,845.00
2023-05-13T01:17:02.518Z,847.00
2023-05-13T01:18:02.895Z,850.00
2023-05-13T01:19:02.423Z,851.00
2023-05-13T01:20:02.383Z,851.00
2023-05-13T01:21:02.374Z,849.00
2023-05-13T01:22:02.378Z,848.00
2023-05-13T01:23:02.445Z,847.00
2023-05-13T01:24:02.434Z,850.00
2023-05-13T01:25:02.408Z,850.00
2023-05-13T01:26:02.433Z,848.00
2023-05-13T01:27:02.448Z,850.00
2023-05-13T01:28:02.464Z,847.00
2023-05-13T01:29:02.457Z,848.00
2023-05-13T01:30:02.463Z,848.00
2023-05-13T01:31:02.521Z,849.00
2023-05-13T01:32:02.494Z,849.00
2023-05-13T01:33:02.569Z,848.00
2023-05-13T01:34:02.502Z,844.00
2023-05-13T01:35:02.525Z,842.00
2023-05-13T01:36:02.537Z,841.00
2023-05-13T01:37:02.561Z,841.00
2023-05-13T01:38:02.577Z,841.00
2023-05-13T01:39:02.561Z,841.00
2023-05-13T01:40:04.543Z,842.00
2023-05-13T01:41:03.567Z,843.00
2023-05-13T01:42:02.547Z,846.00
2023-05-13T01:43:02.543Z,846.00
2023-05-13T01:44:02.543Z,849.00
2023-05-13T01:45:02.546Z,850.00
2023-05-13T01:46:02.563Z,848.00
2023-05-13T01:47:02.528Z,846.00
2023-05-13T01:48:02.606Z,846.00
2023-05-13T01:49:02.512Z,847.00
2023-05-13T01:50:02.512Z,847.00
2023-05-13T01:51:02.498Z,845.00
2023-05-13T01:52:02.486Z,844.00
2023-05-13T01:53:02.498Z,845.00
2023-05-13T01:54:02.487Z,843.00
2023-05-13T01:55:02.481Z,842.00
2023-05-13T01:56:02.459Z,841.00
2023-05-13T01:57:02.463Z,844.00
2023-05-13T01:58:02.466Z,844.00
2023-05-13T01:59:02.442Z,841.00
2023-05-13T02:00:02.431Z,839.00
2023-05-13T02:01:02.428Z,840.00
2023-05-13T02:02:02.520Z,841.00
2023-05-13T02:03:02.492Z,838.00
2023-05-13T02:04:02.539Z,837.00
2023-05-13T02:05:02.398Z,839.00
2023-05-13T02:06:02.405Z,839.00
2023-05-13T02:07:02.381Z,839.00
2023-05-13T02:08:02.382Z,838.00
2023-05-13T02:09:02.368Z,838.00
2023-05-13T02:10:02.362Z,836.00
2023-05-13T02:11:02.349Z,836.00
2023-05-13T02:12:02.344Z,838.00
2023-05-13T02:13:02.437Z,839.00
2023-05-13T02:14:02.359Z,838.00
2023-05-13T02:15:02.341Z,837.00
2023-05-13T02:16:02.362Z,837.00
2023-05-13T02:17:02.318Z,837.00
2023-05-13T02:18:02.376Z,835.00
2023-05-13T02:19:02.371Z,834.00
2023-05-13T02:20:02.334Z,837.00
2023-05-13T02:21:02.365Z,840.00
2023-05-13T02:22:02.357Z,842.00
2023-05-13T02:23:02.367Z,844.00
2023-05-13T02:24:02.369Z,845.00
2023-05-13T02:25:02.378Z,846.00
2023-05-13T02:26:02.409Z,845.00
2023-05-13T02:27:02.397Z,844.00
2023-05-13T02:28:02.409Z,844.00
2023-05-13T02:29:02.438Z,842.00
2023-05-13T02:30:02.442Z,842.00
2023-05-13T02:31:02.452Z,843.00
2023-05-13T02:32:02.493Z,842.00
2023-05-13T02:33:02.620Z,841.00
2023-05-13T02:34:02.519Z,839.00
2023-05-13T02:35:02.514Z,838.00
2023-05-13T02:36:02.544Z,839.00
2023-05-13T02:37:02.557Z,838.00
2023-05-13T02:38:02.552Z,838.00
2023-05-13T02:39:02.572Z,839.00
2023-05-13T02:40:02.562Z,838.00
2023-05-13T02:41:02.599Z,837.00
2023-05-13T02:42:02.595Z,836.00
2023-05-13T02:43:02.609Z,833.00
2023-05-13T02:44:02.639Z,833.00
2023-05-13T02:45:02.642Z,834.00
2023-05-13T02:46:02.724Z,833.00
2023-05-13T02:47:02.688Z,834.00
2023-05-13T02:48:02.760Z,831.00
2023-05-13T02:49:02.693Z,830.00
2023-05-13T02:50:02.702Z,830.00
2023-05-13T02:51:02.724Z,830.00
2023-05-13T02:52:02.746Z,831.00
2023-05-13T02:53:02.761Z,831.00
2023-05-13T02:54:02.752Z,829.00
2023-05-13T02:55:02.838Z,827.00
2023-05-13T02:56:02.797Z,825.00
2023-05-13T02:57:02.801Z,826.00
2023-05-13T02:58:02.847Z,827.00
2023-05-13T02:59:02.836Z,827.00
2023-05-13T03:00:02.871Z,824.00
2023-05-13T03:01:02.899Z,827.00
2023-05-13T03:02:02.901Z,829.00
2023-05-13T03:03:02.995Z,827.00
2023-05-13T03:04:02.934Z,828.00
2023-05-13T03:05:02.946Z,827.00
2023-05-13T03:06:02.952Z,827.00
2023-05-13T03:07:02.959Z,825.00
2023-05-13T03:08:02.988Z,826.00
2023-05-13T03:09:02.998Z,826.00
2023-05-13T03:10:03.010Z,826.00
2023-05-13T03:11:03.038Z,825.00
2023-05-13T03:12:03.102Z,825.00
2023-05-13T03:13:03.099Z,825.00
2023-05-13T03:14:03.115Z,824.00
2023-05-13T03:15:03.106Z,825.00
2023-05-13T03:16:03.194Z,825.00
2023-05-13T03:17:03.161Z,826.00
2023-05-13T03:18:03.333Z,827.00
2023-05-13T03:19:03.235Z,828.00
2023-05-13T03:20:03.207Z,828.00
2023-05-13T03:21:03.239Z,827.00
2023-05-13T03:22:03.244Z,825.00
2023-05-13T03:23:03.255Z,824.00
2023-05-13T03:24:03.281Z,824.00
2023-05-13T03:25:03.322Z,820.00
2023-05-13T03:26:03.336Z,819.00
2023-05-13T03:27:03.330Z,822.00
2023-05-13T03:28:03.366Z,825.00
2023-05-13T03:29:03.384Z,826.00
2023-05-13T03:30:03.406Z,825.00
2023-05-13T03:31:03.452Z,823.00
2023-05-13T03:32:03.451Z,824.00
2023-05-13T03:33:03.510Z,825.00
2023-05-13T03:34:03.486Z,824.00
2023-05-13T03:35:03.509Z,822.00
2023-05-13T03:36:03.528Z,822.00
2023-05-13T03:37:03.567Z,822.00
2023-05-13T03:38:03.599Z,822.00
2023-05-13T03:39:03.604Z,824.00
2023-05-13T03:40:03.620Z,824.00
2023-05-13T03:41:03.669Z,823.00
2023-05-13T03:42:03.680Z,821.00
2023-05-13T03:43:03.683Z,820.00
2023-05-13T03:44:03.715Z,820.00
2023-05-13T03:45:03.722Z,819.00
2023-05-13T03:46:03.732Z,820.00
2023-05-13T03:47:03.874Z,822.00
2023-05-13T03:48:03.845Z,821.00
2023-05-13T03:49:03.792Z,821.00
2023-05-13T03:50:03.811Z,820.00
2023-05-13T03:51:03.831Z,818.00
2023-05-13T03:52:03.863Z,821.00
2023-05-13T03:53:03.868Z,820.00
2023-05-13T03:54:03.905Z,819.00
2023-05-13T03:55:03.921Z,818.00
2023-05-13T03:56:03.936Z,819.00
2023-05-13T03:57:03.973Z,820.00
2023-05-13T03:58:03.982Z,822.00
2023-05-13T03:59:04.031Z,823.00
2023-05-13T04:00:04.010Z,823.00
2023-05-13T04:01:04.046Z,822.00
2023-05-13T04:02:04.130Z,820.00
2023-05-13T04:03:04.138Z,822.00
2023-05-13T04:04:04.132Z,823.00
2023-05-13T04:05:04.153Z,824.00
2023-05-13T04:06:04.159Z,825.00
2023-05-13T04:07:04.191Z,828.00
2023-05-13T04:08:04.212Z,828.00
2023-05-13T04:09:04.232Z,828.00
2023-05-13T04:10:04.248Z,826.00
2023-05-13T04:11:04.308Z,825.00
2023-05-13T04:12:04.314Z,824.00
2023-05-13T04:13:04.314Z,823.00
2023-05-13T04:14:04.341Z,822.00
2023-05-13T04:15:04.371Z,820.00
2023-05-13T04:16:04.390Z,818.00
2023-05-13T04:17:04.539Z,815.00
2023-05-13T04:18:04.525Z,815.00
2023-05-13T04:19:04.519Z,815.00
2023-05-13T04:20:04.489Z,814.00
2023-05-13T04:21:04.522Z,814.00
2023-05-13T04:22:04.514Z,815.00
2023-05-13T04:23:04.529Z,816.00
2023-05-13T04:24:04.597Z,816.00
2023-05-13T04:25:04.581Z,816.00
2023-05-13T04:26:04.600Z,817.00
2023-05-13T04:27:04.666Z,817.00
2023-05-13T04:28:04.644Z,819.00
2023-05-13T04:29:04.667Z,820.00
2023-05-13T04:30:04.683Z,818.00
2023-05-13T04:31:04.709Z,820.00
2023-05-13T04:32:04.773Z,818.00
2023-05-13T04:33:04.809Z,818.00
2023-05-13T04:34:04.783Z,816.00
2023-05-13T04:35:04.781Z,817.00
2023-05-13T04:36:04.795Z,816.00
2023-05-13T04:37:04.827Z,816.00
2023-05-13T04:38:04.874Z,813.00
2023-05-13T04:39:05.399Z,814.00
2023-05-13T04:40:04.926Z,811.00
2023-05-13T04:41:04.935Z,809.00
2023-05-13T04:42:04.972Z,809.00
2023-05-13T04:43:04.971Z,809.00
2023-05-13T04:44:04.986Z,809.00
2023-05-13T04:45:05.008Z,811.00
2023-05-13T04:46:05.089Z,810.00
2023-05-13T04:47:05.051Z,812.00
2023-05-13T04:48:05.132Z,813.00
2023-05-13T04:49:05.080Z,812.00
2023-05-13T04:50:05.100Z,809.00
2023-05-13T04:51:05.116Z,808.00
2023-05-13T04:52:05.128Z,810.00
2023-05-13T04:53:05.169Z,813.00
2023-05-13T04:54:05.173Z,810.00
2023-05-13T04:55:05.240Z,809.00
2023-05-13T04:56:05.227Z,811.00
2023-05-13T04:57:05.237Z,811.00
2023-05-13T04:58:05.321Z,813.00
2023-05-13T04:59:05.291Z,812.00
2023-05-13T05:00:05.330Z,813.00
2023-05-13T05:01:05.328Z,814.00
2023-05-13T05:02:05.464Z,811.00
2023-05-13T05:03:05.421Z,808.00
2023-05-13T05:04:05.438Z,806.00
2023-05-13T05:05:05.412Z,805.00
2023-05-13T05:06:05.436Z,805.00
2023-05-13T05:07:05.452Z,806.00
2023-05-13T05:08:05.468Z,805.00
2023-05-13T05:09:05.499Z,804.00
2023-05-13T05:10:05.513Z,804.00
2023-05-13T05:11:05.517Z,806.00
2023-05-13T05:12:05.541Z,804.00
2023-05-13T05:13:05.561Z,805.00
2023-05-13T05:14:05.607Z,802.00
2023-05-13T05:15:05.614Z,802.00
2023-05-13T05:16:05.636Z,800.00
2023-05-13T05:17:05.730Z,799.00
2023-05-13T05:18:05.780Z,798.00
2023-05-13T05:19:05.775Z,799.00
2023-05-13T05:20:05.758Z,798.00
2023-05-13T05:21:05.818Z,800.00
2023-05-13T05:22:05.821Z,801.00
2023-05-13T05:23:05.831Z,802.00
2023-05-13T05:24:05.879Z,802.00
2023-05-13T05:25:05.900Z,804.00
2023-05-13T05:26:11.620Z,806.00
2023-05-13T05:27:06.916Z,804.00
2023-05-13T05:28:05.924Z,804.00
2023-05-13T05:29:05.913Z,804.00
2023-05-13T05:30:05.898Z,800.00
2023-05-13T05:31:05.897Z,799.00
2023-05-13T05:32:05.955Z,800.00
2023-05-13T05:33:05.918Z,800.00
2023-05-13T05:34:05.886Z,802.00
2023-05-13T05:35:05.860Z,803.00
2023-05-13T05:36:05.851Z,801.00
2023-05-13T05:37:05.846Z,800.00
2023-05-13T05:38:05.843Z,799.00
2023-05-13T05:39:05.849Z,798.00
2023-05-13T05:40:05.830Z,797.00
2023-05-13T05:41:05.825Z,794.00
2023-05-13T05:42:05.823Z,796.00
2023-05-13T05:43:05.805Z,795.00
2023-05-13T05:44:05.800Z,798.00
2023-05-13T05:45:05.815Z,800.00
2023-05-13T05:46:05.833Z,800.00
2023-05-13T05:47:05.837Z,801.00
2023-05-13T05:48:05.891Z,800.00
2023-05-13T05:49:05.898Z,801.00
2023-05-13T05:50:05.908Z,802.00
2023-05-13T05:51:05.937Z,801.00
2023-05-13T05:52:05.959Z,802.00
2023-05-13T05:53:05.979Z,801.00
2023-05-13T05:54:06.019Z,801.00
2023-05-13T05:55:06.024Z,801.00
2023-05-13T05:56:06.056Z,801.00
2023-05-13T05:57:06.087Z,801.00
2023-05-13T05:58:06.108Z,802.00
2023-05-13T05:59:06.145Z,802.00
2023-05-13T06:00:06.191Z,801.00
2023-05-13T06:01:06.223Z,800.00
2023-05-13T06:02:06.277Z,799.00
2023-05-13T06:03:06.478Z,800.00
2023-05-13T06:04:06.327Z,801.00
2023-05-13T06:05:06.304Z,800.00
2023-05-13T06:06:06.337Z,799.00
2023-05-13T06:07:06.442Z,799.00
2023-05-13T06:08:06.397Z,797.00
2023-05-13T06:09:06.431Z,795.00
2023-05-13T06:10:08.243Z,794.00
2023-05-13T06:11:06.490Z,794.00
2023-05-13T06:12:06.532Z,794.00
2023-05-13T06:13:06.540Z,795.00
2023-05-13T06:14:06.581Z,795.00
2023-05-13T06:15:06.599Z,795.00
2023-05-13T06:16:06.756Z,794.00
2023-05-13T06:17:06.653Z,793.00
2023-05-13T06:18:06.710Z,794.00
2023-05-13T06:19:06.790Z,792.00
2023-05-13T06:20:06.754Z,792.00
2023-05-13T06:21:06.787Z,791.00
2023-05-13T06:22:06.812Z,789.00
2023-05-13T06:23:06.833Z,794.00
2023-05-13T06:24:06.892Z,796.00
2023-05-13T06:25:06.886Z,796.00
2023-05-13T06:26:06.932Z,797.00
2023-05-13T06:27:06.968Z,796.00
2023-05-13T06:28:06.976Z,798.00
2023-05-13T06:29:07.008Z,797.00
2023-05-13T06:30:07.040Z,798.00
2023-05-13T06:31:07.086Z,800.00
2023-05-13T06:32:07.088Z,797.00
2023-05-13T06:33:07.198Z,799.00
2023-05-13T06:34:07.160Z,798.00
2023-05-13T06:35:07.180Z,799.00
2023-05-13T06:36:07.214Z,797.00
2023-05-13T06:37:07.239Z,797.00
2023-05-13T06:38:07.260Z,797.00
2023-05-13T06:39:07.297Z,795.00
2023-05-13T06:40:07.324Z,795.00
2023-05-13T06:41:07.383Z,794.00
2023-05-13T06:42:07.405Z,795.00
2023-05-13T06:43:07.436Z,793.00
2023-05-13T06:44:07.482Z,795.00
2023-05-13T06:45:07.492Z,795.00
2023-05-13T06:46:07.527Z,795.00
2023-05-13T06:47:07.580Z,795.00
2023-05-13T06:48:07.691Z,796.00
2023-05-13T06:49:07.605Z,796.00
2023-05-13T06:50:07.632Z,796.00
2023-05-13T06:51:07.663Z,797.00
2023-05-13T06:52:07.679Z,797.00
2023-05-13T06:53:07.697Z,798.00
2023-05-13T06:54:07.728Z,796.00
2023-05-13T06:55:07.779Z,796.00
2023-05-13T06:56:07.785Z,797.00
2023-05-13T06:57:07.817Z,794.00
2023-05-13T06:58:07.826Z,794.00
2023-05-13T06:59:07.892Z,795.00
2023-05-13T07:00:07.894Z,793.00
2023-05-13T07:01:07.999Z,792.00
2023-05-13T07:02:07.933Z,792.00
2023-05-13T07:03:08.006Z,792.00
2023-05-13T07:04:08.166Z,791.00
2023-05-13T07:05:09.750Z,792.00
2023-05-13T07:06:08.006Z,791.00
2023-05-13T07:07:08.001Z,787.00
2023-05-13T07:08:08.002Z,789.00
2023-05-13T07:09:08.542Z,790.00
2023-05-13T07:10:07.985Z,789.00
2023-05-13T07:11:07.969Z,789.00
2023-05-13T07:12:07.957Z,787.00
2023-05-13T07:13:07.976Z,786.00
2023-05-13T07:14:07.951Z,788.00
2023-05-13T07:15:07.932Z,787.00
2023-05-13T07:16:07.927Z,787.00
2023-05-13T07:17:07.955Z,789.00
2023-05-13T07:18:08.022Z,789.00
2023-05-13T07:19:08.006Z,789.00
2023-05-13T07:20:07.904Z,788.00
2023-05-13T07:21:07.903Z,788.00
2023-05-13T07:22:07.887Z,787.00
2023-05-13T07:23:07.885Z,785.00
2023-05-13T07:24:07.876Z,787.00
2023-05-13T07:25:07.871Z,788.00
2023-05-13T07:26:07.868Z,789.00
2023-05-13T07:27:07.850Z,790.00
2023-05-13T07:28:07.853Z,792.00
2023-05-13T07:29:07.846Z,790.00
2023-05-13T07:30:07.838Z,790.00
2023-05-13T07:31:07.863Z,792.00
2023-05-13T07:32:07.812Z,792.00
2023-05-13T07:33:07.878Z,793.00
2023-05-13T07:34:07.813Z,793.00
2023-05-13T07:35:07.794Z,790.00
2023-05-13T07:36:07.778Z,787.00
2023-05-13T07:37:07.805Z,786.00
2023-05-13T07:38:07.817Z,785.00
2023-05-13T07:39:07.765Z,787.00
2023-05-13T07:40:07.818Z,786.00
2023-05-13T07:41:07.766Z,787.00
2023-05-13T07:42:07.734Z,785.00
2023-05-13T07:43:07.724Z,784.00
2023-05-13T07:44:07.743Z,784.00
2023-05-13T07:45:07.733Z,783.00
2023-05-13T07:46:07.706Z,785.00
2023-05-13T07:47:07.767Z,786.00
2023-05-13T07:48:07.720Z,785.00
2023-05-13T07:49:07.740Z,784.00
2023-05-13T07:50:07.687Z,782.00
2023-05-13T07:51:07.688Z,783.00
2023-05-13T07:52:07.678Z,783.00
2023-05-13T07:53:07.658Z,785.00
2023-05-13T07:54:07.720Z,786.00
2023-05-13T07:55:07.642Z,786.00
2023-05-13T07:56:07.646Z,788.00
2023-05-13T07:57:07.636Z,788.00
2023-05-13T07:58:07.632Z,788.00
2023-05-13T07:59:07.628Z,788.00
2023-05-13T08:00:07.620Z,786.00
2023-05-13T08:01:07.600Z,785.00
2023-05-13T08:02:07.616Z,784.00
2023-05-13T08:03:07.700Z,784.00
2023-05-13T08:04:07.706Z,785.00
2023-05-13T08:05:07.628Z,787.00
2023-05-13T08:06:07.577Z,788.00
2023-05-13T08:07:07.563Z,788.00
2023-05-13T08:08:07.567Z,789.00
2023-05-13T08:09:07.549Z,787.00
2023-05-13T08:10:07.562Z,785.00
2023-05-13T08:11:07.551Z,786.00
2023-05-13T08:12:07.524Z,787.00
2023-05-13T08:13:07.534Z,786.00
2023-05-13T08:14:07.528Z,785.00
2023-05-13T08:15:07.547Z,780.00
2023-05-13T08:16:07.565Z,777.00
2023-05-13T08:17:07.526Z,777.00
2023-05-13T08:18:07.524Z,779.00
2023-05-13T08:19:07.570Z,779.00
2023-05-13T08:20:07.488Z,780.00
2023-05-13T08:21:07.481Z,781.00
2023-05-13T08:22:07.469Z,782.00
2023-05-13T08:23:07.481Z,781.00
2023-05-13T08:24:07.450Z,779.00
2023-05-13T08:25:07.444Z,779.00
2023-05-13T08:26:07.440Z,779.00
2023-05-13T08:27:07.444Z,779.00
2023-05-13T08:28:07.454Z,780.00
2023-05-13T08:29:07.476Z,779.00
2023-05-13T08:30:07.485Z,776.00
2023-05-13T08:31:07.486Z,776.00
2023-05-13T08:32:07.599Z,776.00
2023-05-13T08:33:07.537Z,778.00
2023-05-13T08:34:07.526Z,779.00
2023-05-13T08:35:07.554Z,780.00
2023-05-13T08:36:07.560Z,777.00
2023-05-13T08:37:07.555Z,779.00
2023-05-13T08:38:07.568Z,778.00
2023-05-13T08:39:07.583Z,777.00
2023-05-13T08:40:07.605Z,778.00
2023-05-13T08:41:07.611Z,781.00
2023-05-13T08:42:07.608Z,782.00
2023-05-13T08:43:07.621Z,784.00
2023-05-13T08:44:07.642Z,785.00
2023-05-13T08:45:07.648Z,787.00
2023-05-13T08:46:07.720Z,787.00
2023-05-13T08:47:07.655Z,785.00
2023-05-13T08:48:07.714Z,784.00
2023-05-13T08:49:07.685Z,784.00
2023-05-13T08:50:07.737Z,785.00
2023-05-13T08:51:07.688Z,782.00
2023-05-13T08:52:07.702Z,781.00
2023-05-13T08:53:07.715Z,780.00
2023-05-13T08:54:07.761Z,782.00
2023-05-13T08:55:07.733Z,781.00
2023-05-13T08:56:07.731Z,779.00
2023-05-13T08:57:07.767Z,777.00
2023-05-13T08:58:07.771Z,779.00
2023-05-13T08:59:07.772Z,781.00
2023-05-13T09:00:07.781Z,779.00
2023-05-13T09:01:07.861Z,777.00
2023-05-13T09:02:07.800Z,776.00
2023-05-13T09:03:07.820Z,775.00
2023-05-13T09:04:07.814Z,775.00
2023-05-13T09:05:07.899Z,774.00
2023-05-13T09:06:07.825Z,774.00
2023-05-13T09:07:07.853Z,775.00
2023-05-13T09:08:07.852Z,775.00
2023-05-13T09:09:07.856Z,776.00
2023-05-13T09:10:07.897Z,776.00
2023-05-13T09:11:07.878Z,775.00
2023-05-13T09:12:07.917Z,777.00
2023-05-13T09:13:07.903Z,777.00
2023-05-13T09:14:07.927Z,776.00
2023-05-13T09:15:07.928Z,775.00
2023-05-13T09:16:08.010Z,775.00
2023-05-13T09:17:07.995Z,775.00
2023-05-13T09:18:08.138Z,775.00
2023-05-13T09:19:08.067Z,776.00
2023-05-13T09:20:08.016Z,775.00
2023-05-13T09:21:08.001Z,774.00
2023-05-13T09:22:08.001Z,774.00
2023-05-13T09:23:08.024Z,771.00
2023-05-13T09:24:10.258Z,770.00
2023-05-13T09:25:08.023Z,772.00
2023-05-13T09:26:08.013Z,769.00
2023-05-13T09:27:08.012Z,768.00
2023-05-13T09:28:08.070Z,769.00
2023-05-13T09:29:07.978Z,771.00
2023-05-13T09:30:07.984Z,772.00
2023-05-13T09:31:08.044Z,770.00
2023-05-13T09:32:07.978Z,772.00
2023-05-13T09:33:08.074Z,771.00
2023-05-13T09:34:07.970Z,771.00
2023-05-13T09:35:07.952Z,770.00
2023-05-13T09:36:07.935Z,770.00
2023-05-13T09:37:07.948Z,771.00
2023-05-13T09:38:07.926Z,769.00
2023-05-13T09:39:07.929Z,772.00
2023-05-13T09:40:07.914Z,774.00
2023-05-13T09:41:07.931Z,774.00
2023-05-13T09:42:07.928Z,771.00
2023-05-13T09:43:07.876Z,770.00
2023-05-13T09:44:07.874Z,772.00
2023-05-13T09:45:07.875Z,772.00
2023-05-13T09:46:07.871Z,772.00
2023-05-13T09:47:07.993Z,771.00
2023-05-13T09:48:07.884Z,767.00
2023-05-13T09:49:07.849Z,768.00
2023-05-13T09:50:07.842Z,767.00
2023-05-13T09:51:07.841Z,767.00
2023-05-13T09:52:07.822Z,768.00
2023-05-13T09:53:07.812Z,768.00
2023-05-13T09:54:07.813Z,768.00
2023-05-13T09:55:07.810Z,766.00
2023-05-13T09:56:07.793Z,765.00
2023-05-13T09:57:07.795Z,766.00
2023-05-13T09:58:07.787Z,768.00
2023-05-13T09:59:07.815Z,767.00
2023-05-13T10:00:24.894Z,769.00
2023-05-13T10:01:08.774Z,769.00
2023-05-13T10:02:07.822Z,768.00
2023-05-13T10:03:07.771Z,769.00
2023-05-13T10:04:07.810Z,769.00
2023-05-13T10:05:07.742Z,767.00
2023-05-13T10:06:07.737Z,766.00
2023-05-13T10:07:07.725Z,766.00
2023-05-13T10:08:07.709Z,767.00
2023-05-13T10:09:07.707Z,769.00
2023-05-13T10:10:07.705Z,772.00
2023-05-13T10:11:07.700Z,773.00
2023-05-13T10:12:07.690Z,773.00
2023-05-13T10:13:07.680Z,775.00
2023-05-13T10:14:07.663Z,776.00
2023-05-13T10:15:07.680Z,772.00
2023-05-13T10:16:07.725Z,769.00
2023-05-13T10:17:07.666Z,770.00
2023-05-13T10:18:07.786Z,770.00
2023-05-13T10:19:07.702Z,771.00
2023-05-13T10:20:07.629Z,772.00
2023-05-13T10:21:07.628Z,770.00
2023-05-13T10:22:07.642Z,768.00
2023-05-13T10:23:07.617Z,767.00
2023-05-13T10:24:07.616Z,764.00
2023-05-13T10:25:07.594Z,762.00
2023-05-13T10:26:07.583Z,761.00
2023-05-13T10:27:07.585Z,761.00
2023-05-13T10:28:07.575Z,760.00
2023-05-13T10:29:07.576Z,761.00
2023-05-13T10:30:07.561Z,763.00
2023-05-13T10:31:07.592Z,765.00
2023-05-13T10:32:07.560Z,767.00
2023-05-13T10:33:07.561Z,766.00
2023-05-13T10:34:07.557Z,765.00
2023-05-13T10:35:07.560Z,765.00
2023-05-13T10:36:07.555Z,763.00
2023-05-13T10:37:07.578Z,764.00
2023-05-13T10:38:07.583Z,767.00
2023-05-13T10:39:07.591Z,767.00
2023-05-13T10:40:07.703Z,764.00
2023-05-13T10:41:07.619Z,764.00
2023-05-13T10:42:07.630Z,765.00
2023-05-13T10:43:07.644Z,763.00
2023-05-13T10:44:09.830Z,763.00
2023-05-13T10:45:07.666Z,762.00
2023-05-13T10:46:07.770Z,763.00
2023-05-13T10:47:07.755Z,764.00
2023-05-13T10:48:07.924Z,763.00
2023-05-13T10:49:07.713Z,762.00
2023-05-13T10:50:07.755Z,761.00
2023-05-13T10:51:07.751Z,763.00
2023-05-13T10:52:07.764Z,763.00
2023-05-13T10:53:07.761Z,762.00
2023-05-13T10:54:07.799Z,763.00
2023-05-13T10:55:07.791Z,766.00
2023-05-13T10:56:07.848Z,766.00
2023-05-13T10:57:07.836Z,765.00
2023-05-13T10:58:07.834Z,766.00
2023-05-13T10:59:07.849Z,765.00
2023-05-13T11:00:07.871Z,764.00
2023-05-13T11:01:07.922Z,763.00
2023-05-13T11:02:07.904Z,763.00
2023-05-13T11:03:07.942Z,763.00
2023-05-13T11:04:08.156Z,767.00
2023-05-13T11:05:07.912Z,766.00
2023-05-13T11:06:07.918Z,765.00
2023-05-13T11:07:07.931Z,762.00
2023-05-13T11:08:07.955Z,761.00
2023-05-13T11:09:07.963Z,759.00
2023-05-13T11:10:07.966Z,760.00
2023-05-13T11:11:07.987Z,760.00
2023-05-13T11:12:08.000Z,757.00
2023-05-13T11:13:08.008Z,756.00
2023-05-13T11:14:08.539Z,757.00
2023-05-13T11:15:08.021Z,756.00
2023-05-13T11:16:08.081Z,754.00
2023-05-13T11:17:08.046Z,755.00
2023-05-13T11:18:08.101Z,756.00
2023-05-13T11:19:08.240Z,757.00
2023-05-13T11:20:08.090Z,757.00
2023-05-13T11:21:08.109Z,755.00
2023-05-13T11:22:08.079Z,757.00
2023-05-13T11:23:08.090Z,756.00
2023-05-13T11:24:08.113Z,757.00
2023-05-13T11:25:08.118Z,757.00
2023-05-13T11:26:10.056Z,755.00
2023-05-13T11:27:08.121Z,753.00
2023-05-13T11:28:08.116Z,751.00
2023-05-13T11:29:08.126Z,747.00
2023-05-13T11:30:08.105Z,747.00
2023-05-13T11:31:08.104Z,748.00
2023-05-13T11:32:08.090Z,748.00
2023-05-13T11:33:08.187Z,749.00
2023-05-13T11:34:08.080Z,750.00
2023-05-13T11:35:08.068Z,750.00
2023-05-13T11:36:08.069Z,748.00
2023-05-13T11:37:08.071Z,748.00
2023-05-13T11:38:08.047Z,746.00
2023-05-13T11:39:08.036Z,747.00
2023-05-13T11:40:08.055Z,748.00
2023-05-13T11:41:08.044Z,751.00
2023-05-13T11:42:08.020Z,753.00
2023-05-13T11:43:08.014Z,754.00
2023-05-13T11:44:08.007Z,752.00
2023-05-13T11:45:08.004Z,751.00
2023-05-13T11:46:08.048Z,751.00
2023-05-13T11:47:08.116Z,750.00
2023-05-13T11:48:08.009Z,749.00
2023-05-13T11:49:07.961Z,749.00
2023-05-13T11:50:07.959Z,748.00
2023-05-13T11:51:07.957Z,748.00
2023-05-13T11:52:07.960Z,751.00
2023-05-13T11:53:07.934Z,751.00
2023-05-13T11:54:07.934Z,751.00
2023-05-13T11:55:07.930Z,750.00
2023-05-13T11:56:07.928Z,750.00
2023-05-13T11:57:07.908Z,745.00
2023-05-13T11:58:07.906Z,745.00
2023-05-13T11:59:07.911Z,746.00
2023-05-13T12:00:07.912Z,748.00
2023-05-13T12:01:08.537Z,750.00
2023-05-13T12:02:08.026Z,750.00
2023-05-13T12:03:08.104Z,751.00
2023-05-13T12:04:07.890Z,751.00
2023-05-13T12:05:07.931Z,751.00
2023-05-13T12:06:07.850Z,751.00
2023-05-13T12:07:07.854Z,749.00
2023-05-13T12:08:07.838Z,750.00
2023-05-13T12:09:07.865Z,748.00
2023-05-13T12:10:07.827Z,748.00
2023-05-13T12:11:07.821Z,749.00
2023-05-13T12:12:07.807Z,750.00
2023-05-13T12:13:07.797Z,750.00
2023-05-13T12:14:07.802Z,749.00
2023-05-13T12:15:07.792Z,752.00
2023-05-13T12:16:07.842Z,753.00
2023-05-13T12:17:07.766Z,753.00
2023-05-13T12:18:07.877Z,753.00
2023-05-13T12:19:07.886Z,753.00
2023-05-13T12:20:07.748Z,753.00
2023-05-13T12:21:07.745Z,750.00
2023-05-13T12:22:07.732Z,748.00
2023-05-13T12:23:07.725Z,747.00
2023-05-13T12:24:07.713Z,746.00
2023-05-13T12:25:07.714Z,745.00
2023-05-13T12:26:07.718Z,745.00
2023-05-13T12:27:09.473Z,746.00
2023-05-13T12:28:07.692Z,745.00